Terminal Aerodrome Forecast
Issued by NWS Quad Cities IA IL

Home | Current Version | Previous Version | Text Only | Print | Product List | Glossary On
Versions: 1 2 3 4 5 6 7 8 9 10 11 12 13 14 15
259
FTUS43 KDVN 211735
TAFMLI
TAF
KMLI 211735Z 2118/2218 32012KT P6SM OVC080
     FM220500 07006KT P6SM BKN250
     FM221500 10008KT P6SM BKN100=

USA.gov is the U.S. government's official web portal to all federal, state and local government web resources and services.